Weather at Vancouver International Airport

Public forecast

Using degrees Celsius for public forecast. Weather courtesy of forecast.io.

Current aviation weather report (METAR) for Vancouver International Airport

Retrieved 2022/07/06 04:00 UTC (12 minutes ago):

CYVR 060400Z 23006KT 210V280 30SM FEW050TCU SCT099 BKN120 BKN210 17/15 A2988 RMK TCU1AC4AC2CC1 TCU TR SH DIST W SLP120 DENSITY ALT 400FT

Aviation forecast (TAF) for Vancouver International Airport

Retrieved 2022-07-06 03:43 UTC (29 minutes ago):

TAF CYVR 060240Z 0603/0706 29008KT P6SM FEW040 BKN210 FM060400 29006KT P6SM BKN080 TEMPO 0606/0610 P6SM -SHRA BKN060 FM061000 11008KT P6SM SCT030 BKN060 TEMPO 0610/0706 P6SM -SHRA BKN030 BECMG 0616/0618 27008KT RMK NXT FCST BY 060600Z